Kuala Lumpur International Airport
WMKK : now visible

Airfield :











YOU CAN JOIN US ON...

 
LOGIN :

Register | Disclaimer

   EN    FR    IT 

 









Legend :    VFR   Marginal VFR   IFR   Intensive IFR   Very Intensive IFR
Visi :
Ceiling :
>= 8 km
>= 3000ft
5 to 8 km
1000 to 3000 ft
1500m to 5 km
500 to 1000 ft
800 to 1500m
200 to 500 ft
< 800m
< 200 ft
Symbols :   Thunderstorms  Fog  Heavy snow  Heavy precipitations  Wind > 20 kt






- Airport Elevation : 69 ft
- IATA code : KUL


WMKK - Kuala Lumpur International

CURRENT METAR :
  • 271200Z VRB02KT 9999 FEW030 27/24 Q1007 NOSIG

EXPIRED METARs :
  • 271130Z VRB01KT 9999 FEW030 28/24 Q1006 NOSIG
  • 271100Z 24003KT 200V280 9999 FEW030 29/23 Q1006 NOSIG
  • 271030Z VRB03KT 9999 FEW018 29/23 Q1006 NOSIG
  • 271000Z VRB03KT 9999 FEW018 30/23 Q1005 NOSIG
  • 270930Z VRB03KT 9999 FEW018 31/23 Q1005 NOSIG
  • 270900Z VRB03KT 9999 FEW018 32/25 Q1005 NOSIG

TAF TAF WMKK
Valid from the 27 at 12:00 until the 28 at 18:00 UTC


271100Z 2712/2818 VRB03KT 9999 FEW030
PROB30
TEMPO 2718/2722 4000 TSRA FEW005 FEW016CB
WMFC FIR / Asia



MET'MAP, your aeronautical weather chart ! - Copyright ORBIFLY December 2007 - Disclaimer

ORBIFLY MET'MAP TEAM :

Programming & Development : Alexandra Zaïnal
Original concept : Baudouin d'Aumeries
Technical & hardware support : Manuel Goepfert
Assistance : Marc-Olivier Méhu




SOURCES & CREDITS :

   NOAA       Earth
Advisory